Time;durP1;ratioP1;P1;durP2;ratioP2;P2;SDS_P1;SDS_P2;PMS_P1;PMS_P2;Temp;Humidity;BMP_temperature;BMP_pressure;BME280_temperature;BME280_humidity;BME280_pressure;Samples;Min_cycle;Max_cycle;Signal;HPM_P1;HPM_P2
2021/03/23 00:00:22;;;;;;;11.00;8.53;;;;;;;5.43;73.15;102664.69;5096710;28;20032;-41
2021/03/23 00:03:22;;;;;;;11.10;9.50;;;;;;;5.43;72.76;102666.53;5096228;28;20028;-41
2021/03/23 00:05:47;;;;;;;9.05;8.15;;;;;;;5.45;73.36;102671.75;5053486;28;20115;-41
2021/03/23 00:08:29;;;;;;;12.77;9.40;;;;;;;5.42;72.95;102664.88;5053398;28;20033;-41
2021/03/23 00:10:57;;;;;;;14.18;9.82;;;;;;;5.41;73.37;102661.31;5053527;28;20098;-41
2021/03/23 00:13:23;;;;;;;13.68;10.38;;;;;;;5.39;72.86;102668.69;5051859;28;20119;-41
2021/03/23 00:15:49;;;;;;;12.48;9.88;;;;;;;5.42;73.21;102664.88;5053365;28;20079;-41
2021/03/23 00:18:16;;;;;;;;;;;;;;;5.50;72.79;102658.72;5053576;28;20112;-41
2021/03/23 00:20:42;;;;;;;14.07;11.68;;;;;;;5.36;72.64;102665.44;5053420;28;19939;-41
2021/03/23 00:23:08;;;;;;;14.68;11.68;;;;;;;5.27;73.01;102663.69;5053123;28;20045;-41
2021/03/23 00:25:34;;;;;;;15.73;12.82;;;;;;;5.30;72.98;102653.50;5053346;28;20564;-41
2021/03/23 00:27:59;;;;;;;13.57;10.87;;;;;;;5.19;72.80;102659.09;5053034;28;20033;-41
2021/03/23 00:30:25;;;;;;;11.90;10.30;;;;;;;5.28;73.47;102654.66;5053815;28;20079;-41
2021/03/23 00:32:51;;;;;;;13.25;11.30;;;;;;;5.19;73.14;102659.09;5053478;28;20037;-41
2021/03/23 00:35:16;;;;;;;14.70;12.17;;;;;;;5.16;73.10;102662.91;5052959;28;20073;-41
2021/03/23 00:37:42;;;;;;;15.70;13.00;;;;;;;5.21;73.07;102656.25;5053142;28;20288;-41
2021/03/23 00:40:16;;;;;;;13.73;12.33;;;;;;;5.20;73.06;102660.75;5036955;28;20377;-41
2021/03/23 00:42:41;;;;;;;14.60;12.15;;;;;;;5.23;72.64;102662.31;5085501;28;20530;-41
2021/03/23 00:45:09;;;;;;;14.07;12.63;;;;;;;5.16;72.48;102654.00;5095564;28;20024;-41
2021/03/23 00:47:34;;;;;;;14.90;13.38;;;;;;;5.16;73.17;102657.53;5095045;28;20107;-45
2021/03/23 00:49:59;;;;;;;13.57;12.17;;;;;;;5.22;73.12;102656.13;5095486;28;20154;-42
2021/03/23 00:52:25;;;;;;;15.10;13.27;;;;;;;5.20;73.17;102665.28;5095112;28;20365;-41
2021/03/23 00:54:51;;;;;;;16.97;15.03;;;;;;;5.20;72.65;102671.50;5094869;28;20028;-41
2021/03/23 00:57:17;;;;;;;14.70;12.48;;;;;;;5.25;72.71;102661.16;5094707;28;20024;-41
2021/03/23 00:59:43;;;;;;;15.80;13.43;;;;;;;5.33;72.62;102657.72;5094778;28;20032;-41
2021/03/23 01:02:08;;;;;;;13.07;11.67;;;;;;;5.36;73.29;102655.56;5095451;28;20028;-41
2021/03/23 01:04:33;;;;;;;17.17;13.87;;;;;;;5.33;72.78;102658.56;5095491;28;20058;-41
2021/03/23 01:06:59;;;;;;;16.30;14.57;;;;;;;5.31;72.28;102655.16;5095155;28;20035;-41
2021/03/23 01:09:24;;;;;;;14.50;12.97;;;;;;;5.36;72.33;102658.25;5095391;28;20082;-41
2021/03/23 01:11:49;;;;;;;16.33;12.97;;;;;;;5.41;72.58;102655.09;5094771;28;20055;-41
2021/03/23 01:14:15;;;;;;;20.30;14.77;;;;;;;5.35;72.32;102658.41;5094449;28;20422;-41
2021/03/23 01:16:40;;;;;;;15.55;13.85;;;;;;;5.41;72.73;102655.09;5094375;28;20020;-41
2021/03/23 01:19:06;;;;;;;18.47;15.10;;;;;;;5.34;72.22;102659.41;5094988;28;20372;-41
2021/03/23 01:21:31;;;;;;;15.63;14.03;;;;;;;5.37;72.25;102659.94;5094574;28;20435;-41
2021/03/23 01:23:56;;;;;;;16.23;14.20;;;;;;;5.36;72.62;102652.88;5094752;28;20020;-41
2021/03/23 01:26:22;;;;;;;16.50;14.13;;;;;;;5.36;72.68;102658.25;5094925;28;20503;-42
2021/03/23 01:28:47;;;;;;;16.23;14.53;;;;;;;5.35;72.05;102648.50;5094417;28;20024;-42
2021/03/23 01:31:12;;;;;;;17.23;14.20;;;;;;;5.37;71.53;102654.59;5094454;28;20357;-41
2021/03/23 01:33:38;;;;;;;15.37;13.67;;;;;;;5.41;72.74;102653.25;5094130;28;20550;-41
2021/03/23 01:36:04;;;;;;;15.88;14.27;;;;;;;5.39;72.60;102652.59;5094258;28;20027;-42
2021/03/23 01:38:30;;;;;;;16.73;13.48;;;;;;;5.40;71.69;102659.63;5094526;28;20469;-41
2021/03/23 01:40:55;;;;;;;16.60;14.27;;;;;;;5.39;71.66;102649.91;5094801;28;20103;-41
2021/03/23 01:43:24;;;;;;;14.30;12.80;;;;;;;5.43;72.36;102645.91;5093876;28;20032;-41
2021/03/23 01:45:51;;;;;;;19.70;14.27;;;;;;;5.41;72.16;102645.22;5093516;28;20026;-41
2021/03/23 01:48:25;;;;;;;17.88;14.70;;;;;;;5.39;71.80;102647.22;5094087;28;20028;-41
2021/03/23 01:50:55;;;;;;;17.52;13.90;;;;;;;5.45;71.76;102650.28;5094633;28;20039;-41
2021/03/23 01:53:33;;;;;;;17.50;14.10;;;;;;;5.41;72.23;102645.22;5094371;28;20111;-41
2021/03/23 01:55:58;;;;;;;17.42;14.93;;;;;;;5.42;72.02;102641.56;5093470;28;20047;-41
2021/03/23 01:58:25;;;;;;;17.13;15.40;;;;;;;5.39;71.75;102636.47;5093621;28;20035;-41
2021/03/23 02:00:50;;;;;;;16.73;14.77;;;;;;;5.39;71.48;102625.75;5094234;28;20062;-41
2021/03/23 02:03:18;;;;;;;15.40;13.90;;;;;;;5.41;72.25;102630.97;5093581;28;20043;-41
2021/03/23 02:05:52;;;;;;;17.52;13.88;;;;;;;5.37;71.61;102635.81;5094139;28;20470;-41
2021/03/23 02:08:17;;;;;;;16.05;13.43;;;;;;;5.47;71.78;102629.53;5093874;28;20049;-41
2021/03/23 02:10:43;;;;;;;16.33;14.53;;;;;;;5.42;71.21;102619.25;5093843;28;20107;-41
2021/03/23 02:13:08;;;;;;;15.53;12.77;;;;;;;5.48;72.18;102623.16;5093476;28;20111;-41
2021/03/23 02:15:34;;;;;;;16.10;13.23;;;;;;;5.41;71.74;102617.53;5093758;28;20023;-41
2021/03/23 02:18:20;;;;;;;15.20;13.40;;;;;;;5.47;71.45;102616.09;5093658;28;20016;-41
2021/03/23 02:21:01;;;;;;;16.50;13.68;;;;;;;5.48;71.21;102612.41;5094193;28;20464;-41
2021/03/23 02:23:32;;;;;;;17.67;13.20;;;;;;;5.45;71.45;102612.72;5093955;28;20396;-41
2021/03/23 02:25:57;;;;;;;16.95;12.85;;;;;;;5.41;71.25;102614.84;5094207;28;20043;-41
2021/03/23 02:28:23;;;;;;;16.90;13.17;;;;;;;5.45;71.49;102604.66;5093588;28;20020;-41
2021/03/23 02:30:50;;;;;;;17.70;13.25;;;;;;;5.43;71.58;102602.16;5093555;28;20036;-41
2021/03/23 02:33:16;;;;;;;14.60;12.30;;;;;;;5.43;71.26;102600.31;5093511;28;20114;-41
2021/03/23 02:35:41;;;;;;;16.85;12.77;;;;;;;5.43;71.30;102600.31;5093242;28;20632;-41
2021/03/23 02:38:07;;;;;;;14.93;12.47;;;;;;;5.47;71.46;102597.31;5096196;28;20026;-41
2021/03/23 02:40:33;;;;;;;16.60;12.00;;;;;;;5.46;71.30;102601.81;5096494;28;20067;-41
2021/03/23 02:42:58;;;;;;;15.30;12.88;;;;;;;5.41;71.34;102596.91;5098319;28;20356;-41
2021/03/23 02:45:25;;;;;;;17.90;12.40;;;;;;;5.46;71.63;102598.31;5097611;28;20032;-41
2021/03/23 02:47:50;;;;;;;15.00;12.50;;;;;;;5.52;71.63;102606.59;5097722;28;20524;-41
2021/03/23 02:50:16;;;;;;;18.42;12.18;;;;;;;5.46;71.82;102593.78;5098078;28;20028;-41
2021/03/23 02:52:42;;;;;;;13.93;12.43;;;;;;;5.47;71.79;102594.66;5097095;28;20473;-41
2021/03/23 02:55:09;;;;;;;18.73;12.48;;;;;;;5.47;71.85;102591.97;5097741;28;20107;-41
2021/03/23 02:57:34;;;;;;;14.48;11.80;;;;;;;5.50;72.30;102588.94;5096172;28;20097;-41
2021/03/23 02:59:59;;;;;;;15.80;11.63;;;;;;;5.52;71.74;102586.97;5097889;28;20028;-41
2021/03/23 03:02:25;;;;;;;15.93;12.10;;;;;;;5.48;72.16;102583.75;5096923;28;20024;-41
2021/03/23 03:04:50;;;;;;;15.70;11.40;;;;;;;5.50;71.88;102586.25;5097347;28;20042;-41
2021/03/23 03:07:15;;;;;;;13.97;12.03;;;;;;;5.47;72.32;102595.47;5096953;28;20111;-41
2021/03/23 03:09:41;;;;;;;16.67;12.20;;;;;;;5.50;71.96;102584.41;5097493;28;20039;-41
2021/03/23 03:12:07;;;;;;;17.37;12.10;;;;;;;5.48;72.52;102585.59;5097116;28;20054;-41
2021/03/23 03:14:32;;;;;;;18.65;12.45;;;;;;;5.46;72.47;102587.56;5096995;28;20107;-41
2021/03/23 03:16:58;;;;;;;14.80;11.80;;;;;;;5.44;72.12;102587.72;5096998;28;20115;-41
2021/03/23 03:19:23;;;;;;;18.53;11.90;;;;;;;5.45;72.41;102585.88;5096847;28;20453;-41
2021/03/23 03:21:49;;;;;;;15.20;11.63;;;;;;;5.48;72.53;102591.78;5096886;28;20040;-41
2021/03/23 03:24:14;;;;;;;20.55;11.95;;;;;;;5.47;72.27;102583.91;5096787;28;20030;-41
2021/03/23 03:26:40;;;;;;;17.20;12.20;;;;;;;5.49;72.07;102584.59;5097491;28;20111;-41
2021/03/23 03:29:05;;;;;;;16.70;12.20;;;;;;;5.52;72.35;102584.28;5096769;28;20067;-41
2021/03/23 03:31:31;;;;;;;20.73;12.80;;;;;;;5.50;72.11;102584.41;5096806;28;20385;-41
2021/03/23 03:33:59;;;;;;;17.48;13.10;;;;;;;5.51;72.34;102578.06;5097538;28;20129;-41
2021/03/23 03:36:26;;;;;;;18.50;12.80;;;;;;;5.49;72.39;102592.63;5096323;28;20032;-41
2021/03/23 03:38:52;;;;;;;20.40;12.75;;;;;;;5.52;72.35;102579.75;5096289;28;20032;-41
2021/03/23 03:41:18;;;;;;;;;;;;;;;5.56;72.01;102578.47;5097577;28;20028;-41
2021/03/23 03:43:43;;;;;;;18.40;12.38;;;;;;;5.54;72.17;102576.91;5096175;28;20007;-41
2021/03/23 03:46:09;;;;;;;17.63;13.27;;;;;;;5.50;72.57;102573.69;5096461;28;20039;-41
2021/03/23 03:48:35;;;;;;;20.63;12.82;;;;;;;5.51;72.50;102574.53;5096037;28;20358;-41
2021/03/23 03:51:00;;;;;;;18.67;13.15;;;;;;;5.50;72.50;102570.16;5096572;28;20031;-41
2021/03/23 03:53:26;;;;;;;24.70;12.77;;;;;;;5.51;73.03;102570.00;5096381;28;20434;-41
2021/03/23 03:55:52;;;;;;;21.48;13.85;;;;;;;5.47;73.06;102571.34;5096315;28;20032;-41
2021/03/23 03:58:19;;;;;;;23.00;13.13;;;;;;;5.45;72.84;102559.06;5095870;28;20377;-40
2021/03/23 04:00:44;;;;;;;;;;;;;;;5.54;72.41;102563.50;5096362;28;20085;-40
2021/03/23 04:03:14;;;;;;;20.00;12.25;;;;;;;5.49;72.88;102563.13;5095727;28;19915;-40
2021/03/23 04:05:41;;;;;;;16.70;11.95;;;;;;;5.45;72.41;102557.22;5096551;28;20055;-40
2021/03/23 04:08:09;;;;;;;17.17;12.13;;;;;;;5.50;72.86;102551.38;5096003;28;20055;-40
2021/03/23 04:10:35;;;;;;;17.98;11.57;;;;;;;5.52;72.93;102560.13;5096504;28;20024;-40
2021/03/23 04:13:00;;;;;;;17.07;11.17;;;;;;;5.52;72.87;102560.97;5095977;28;20085;-40
2021/03/23 04:15:30;;;;;;;18.83;12.65;;;;;;;5.49;72.80;102557.75;5096380;28;20255;-41
2021/03/23 04:17:55;;;;;;;19.63;12.25;;;;;;;5.52;73.25;102560.97;5095693;28;20028;-41
2021/03/23 04:20:21;;;;;;;20.73;12.43;;;;;;;5.47;73.22;102557.91;5096380;28;20031;-40
2021/03/23 04:22:47;;;;;;;17.42;11.15;;;;;;;5.53;72.91;102551.91;5094332;28;20044;-41
2021/03/23 04:25:14;;;;;;;16.83;11.57;;;;;;;5.52;73.80;102557.44;5095761;28;20070;-40
2021/03/23 04:27:40;;;;;;;20.60;11.70;;;;;;;5.53;73.15;102559.13;5096432;28;20388;-40
2021/03/23 04:30:07;;;;;;;19.88;11.95;;;;;;;5.49;72.99;102555.91;5095848;28;20028;-40
2021/03/23 04:32:33;;;;;;;20.40;12.93;;;;;;;5.49;72.88;102560.44;5095170;28;20028;-40
2021/03/23 04:34:59;;;;;;;17.90;11.90;;;;;;;5.47;73.22;102560.59;5095677;28;20028;-41
2021/03/23 04:37:24;;;;;;;18.20;11.25;;;;;;;5.46;73.46;102560.72;5095157;28;20460;-41
2021/03/23 04:39:50;;;;;;;21.07;12.73;;;;;;;5.49;73.29;102555.91;5095677;28;20028;-41
2021/03/23 04:42:16;;;;;;;18.98;12.98;;;;;;;5.48;72.53;102564.97;5095495;28;20276;-41
2021/03/23 04:44:41;;;;;;;22.07;12.43;;;;;;;5.49;73.71;102572.00;5095579;28;20107;-41
2021/03/23 04:47:07;;;;;;;24.40;13.10;;;;;;;5.47;73.11;102557.06;5095509;28;20452;-41
2021/03/23 04:49:32;;;;;;;21.60;13.05;;;;;;;5.50;72.99;102562.13;5095514;28;20024;-41
2021/03/23 04:51:58;;;;;;;19.43;12.43;;;;;;;5.51;73.91;102559.25;5094835;28;20036;-41
2021/03/23 04:54:24;;;;;;;19.63;12.73;;;;;;;5.48;73.28;102558.75;5094815;28;20024;-41
2021/03/23 04:56:49;;;;;;;21.10;13.88;;;;;;;5.43;73.46;102551.16;5094753;28;20031;-41
2021/03/23 04:59:14;;;;;;;20.83;13.43;;;;;;;5.45;73.46;102556.38;5094546;28;20032;-43
2021/03/23 05:01:40;;;;;;;22.80;13.03;;;;;;;5.42;73.64;102553.00;5094498;28;20020;-41
2021/03/23 05:04:10;;;;;;;24.70;14.20;;;;;;;5.43;73.54;102560.06;5094869;28;20073;-41
2021/03/23 05:06:35;;;;;;;23.20;14.40;;;;;;;5.43;74.20;102567.28;5094532;28;20494;-41
2021/03/23 05:09:01;;;;;;;22.10;13.20;;;;;;;5.44;73.78;102568.94;5095678;28;20024;-41
2021/03/23 05:11:29;;;;;;;34.20;14.40;;;;;;;5.40;73.87;102568.41;5095008;28;20111;-41
2021/03/23 05:13:55;;;;;;;21.45;13.15;;;;;;;5.41;74.50;102567.41;5094664;28;20038;-42
2021/03/23 05:16:21;;;;;;;20.83;13.77;;;;;;;5.39;74.23;102569.41;5095027;28;20107;-42
2021/03/23 05:18:46;;;;;;;17.38;11.90;;;;;;;5.41;74.00;102564.72;5094630;28;20039;-41
2021/03/23 05:21:12;;;;;;;23.20;12.98;;;;;;;5.41;74.03;102571.94;5094326;28;20028;-42
2021/03/23 05:23:38;;;;;;;21.02;13.13;;;;;;;5.43;74.29;102572.63;5094112;28;20047;-41
2021/03/23 05:26:05;;;;;;;18.42;12.48;;;;;;;5.43;73.99;102575.31;5094564;28;20032;-41
2021/03/23 05:28:31;;;;;;;23.63;12.98;;;;;;;5.46;73.97;102576.84;5094416;28;20102;-41
2021/03/23 05:30:57;;;;;;;22.08;13.18;;;;;;;5.45;74.42;102569.78;5094920;28;20053;-42
2021/03/23 05:33:23;;;;;;;23.17;12.75;;;;;;;5.46;74.39;102571.47;5094062;28;20060;-41
2021/03/23 05:35:50;;;;;;;21.83;13.40;;;;;;;5.45;74.42;102576.00;5094650;28;20028;-41
2021/03/23 05:38:16;;;;;;;23.92;13.80;;;;;;;5.43;74.96;102580.69;5094231;28;20050;-41
2021/03/23 05:40:46;;;;;;;26.63;14.32;;;;;;;5.45;74.21;102575.16;5093915;28;20032;-41
2021/03/23 05:43:30;;;;;;;23.83;13.05;;;;;;;5.45;74.46;102572.47;5094793;28;20403;-41
2021/03/23 05:46:03;;;;;;;26.00;14.63;;;;;;;5.47;74.48;102584.75;5094386;28;20028;-41
2021/03/23 05:48:35;;;;;;;21.60;13.10;;;;;;;5.46;74.46;102583.03;5094688;28;20027;-41
2021/03/23 05:51:15;;;;;;;21.15;13.05;;;;;;;5.48;74.41;102590.97;5094613;28;20358;-41
2021/03/23 05:54:08;;;;;;;22.60;13.15;;;;;;;5.46;74.43;102591.09;5094077;28;20142;-41
2021/03/23 05:56:37;;;;;;;19.23;12.52;;;;;;;5.47;74.21;102581.22;5094277;28;20028;-41
2021/03/23 05:59:11;;;;;;;19.13;12.13;;;;;;;5.48;74.59;102581.06;5093834;28;20388;-41
2021/03/23 06:01:44;;;;;;;22.38;12.48;;;;;;;5.46;74.86;102582.19;5093639;28;20024;-41
2021/03/23 06:04:33;;;;;;;22.90;13.05;;;;;;;5.49;74.48;102579.22;5093903;28;20107;-41
2021/03/23 06:07:04;;;;;;;23.83;12.45;;;;;;;5.46;74.58;102579.53;5092904;28;20487;-42
2021/03/23 06:09:33;;;;;;;22.33;12.75;;;;;;;5.47;74.78;102578.53;5093889;28;20032;-41
2021/03/23 06:12:17;;;;;;;20.95;13.30;;;;;;;5.50;75.33;102583.59;5094334;28;20036;-41
2021/03/23 06:15:00;;;;;;;20.13;12.63;;;;;;;5.52;75.04;102579.75;5094342;28;20028;-41
2021/03/23 06:17:47;;;;;;;17.50;12.40;;;;;;;5.53;74.59;102586.81;5094267;28;20413;-41
2021/03/23 06:20:50;;;;;;;21.65;12.18;;;;;;;5.56;75.12;102582.94;5094225;28;20028;-41
2021/03/23 06:23:40;;;;;;;19.95;12.88;;;;;;;5.55;75.06;102582.13;5093322;28;20048;-41
2021/03/23 06:26:14;;;;;;;19.25;12.15;;;;;;;5.58;74.88;102586.34;5094417;28;20028;-41
2021/03/23 06:28:55;;;;;;;22.63;13.73;;;;;;;5.59;74.84;102586.19;5093553;28;20103;-41
2021/03/23 06:31:42;;;;;;;22.35;13.40;;;;;;;5.60;75.20;102585.16;5093326;28;20028;-41
2021/03/23 06:34:24;;;;;;;21.25;13.27;;;;;;;5.67;74.69;102586.25;5093612;28;20133;-41
2021/03/23 06:36:50;;;;;;;25.60;13.73;;;;;;;5.67;75.05;102588.09;5093296;28;20030;-41
2021/03/23 06:39:16;;;;;;;;;;;;;;;5.77;74.31;102591.53;5093837;28;20035;-41
2021/03/23 06:42:02;;;;;;;26.30;13.15;;;;;;;5.74;74.73;102590.97;5093830;28;19912;-41
2021/03/23 06:44:32;;;;;;;25.58;14.40;;;;;;;5.74;75.00;102591.81;5093200;28;20077;-41
2021/03/23 06:46:58;;;;;;;20.27;12.60;;;;;;;5.79;75.27;102588.66;5093340;28;20028;-42
2021/03/23 06:49:42;;;;;;;21.15;14.20;;;;;;;5.81;75.30;102609.00;5092978;28;20035;-41
2021/03/23 06:52:19;;;;;;;25.35;14.07;;;;;;;5.86;75.46;102604.00;5093780;28;20112;-41
2021/03/23 06:55:07;;;;;;;26.83;13.48;;;;;;;5.89;75.32;102610.88;5094188;28;20060;-41
2021/03/23 06:57:38;;;;;;;29.80;14.07;;;;;;;5.92;75.56;102613.31;5093491;28;20028;-41
2021/03/23 07:00:21;;;;;;;21.70;13.70;;;;;;;5.97;75.44;102618.22;5092975;28;20107;-41
2021/03/23 07:02:54;;;;;;;21.02;13.63;;;;;;;5.97;74.96;102620.91;5093226;28;20031;-41
2021/03/23 07:05:37;;;;;;;25.02;13.50;;;;;;;6.03;74.97;102625.63;5094300;28;20448;-41
2021/03/23 07:08:09;;;;;;;27.10;14.20;;;;;;;6.04;74.93;102630.00;5093406;28;20379;-41
2021/03/23 07:10:43;;;;;;;23.77;14.50;;;;;;;6.05;75.87;102629.84;5093445;28;20119;-41
2021/03/23 07:13:28;;;;;;;24.58;14.30;;;;;;;6.13;75.45;102623.69;5093478;28;20095;-41
2021/03/23 07:16:11;;;;;;;24.45;14.70;;;;;;;6.16;75.09;102621.53;5093444;28;20070;-41
2021/03/23 07:18:40;;;;;;;21.42;13.70;;;;;;;6.20;75.04;102619.38;5093124;28;20066;-41
2021/03/23 07:21:14;;;;;;;24.15;14.38;;;;;;;6.26;75.50;102618.72;5093087;28;20048;-40
2021/03/23 07:23:41;;;;;;;24.30;14.77;;;;;;;6.26;75.73;102612.50;5094967;28;20040;-41
2021/03/23 07:26:19;;;;;;;23.70;15.55;;;;;;;6.34;75.49;102621.44;5097164;28;20472;-41
2021/03/23 07:28:45;;;;;;;25.55;14.85;;;;;;;6.43;75.49;102615.09;5096810;28;20039;-41
2021/03/23 07:31:37;;;;;;;28.67;15.95;;;;;;;6.43;75.46;102614.28;5096752;28;20073;-41
2021/03/23 07:34:25;;;;;;;26.33;16.17;;;;;;;6.51;74.85;102626.91;5097028;28;20054;-41
2021/03/23 07:37:09;;;;;;;26.55;16.67;;;;;;;6.55;75.22;102625.59;5097209;28;20032;-41
2021/03/23 07:39:47;;;;;;;25.77;16.30;;;;;;;6.56;75.41;102629.97;5096850;28;20388;-41
2021/03/23 07:42:41;;;;;;;27.55;18.05;;;;;;;6.59;74.98;102619.75;5096599;28;20035;-41
2021/03/23 07:45:09;;;;;;;25.80;16.92;;;;;;;6.62;75.40;102629.31;5097262;28;20028;-41
2021/03/23 07:47:48;;;;;;;31.02;18.35;;;;;;;6.59;75.30;102626.97;5096433;28;20066;-41
2021/03/23 07:50:27;;;;;;;27.95;17.77;;;;;;;6.66;75.73;102630.69;5096398;28;20039;-41
2021/03/23 07:53:05;;;;;;;29.90;18.63;;;;;;;6.72;75.07;102636.25;5096570;28;20080;-41
2021/03/23 07:55:32;;;;;;;26.88;18.77;;;;;;;6.80;75.29;102634.59;5096879;28;20106;-41
2021/03/23 07:58:07;;;;;;;34.42;20.25;;;;;;;6.86;75.09;102631.25;5096780;28;20483;-41
2021/03/23 08:00:50;;;;;;;31.55;21.38;;;;;;;6.91;74.71;102629.75;5096789;28;20032;-41
2021/03/23 08:03:37;;;;;;;34.28;21.98;;;;;;;6.99;74.59;102626.25;5096434;28;20035;-41
2021/03/23 08:06:05;;;;;;;31.42;21.05;;;;;;;7.04;74.17;102633.84;5096370;28;20102;-41
2021/03/23 08:08:47;;;;;;;35.63;22.45;;;;;;;7.09;74.09;102632.34;5096050;28;20039;-41
2021/03/23 08:11:33;;;;;;;36.15;23.33;;;;;;;7.16;74.59;102635.19;5096027;28;20042;-41
2021/03/23 08:14:22;;;;;;;34.43;23.10;;;;;;;7.26;73.80;102629.66;5095590;28;20353;-41
2021/03/23 08:17:18;;;;;;;41.53;25.67;;;;;;;7.36;73.83;102630.38;5096761;28;20042;-41
2021/03/23 08:19:58;;;;;;;34.80;24.77;;;;;;;7.39;73.19;102641.66;5096426;28;20031;-41
2021/03/23 08:22:51;;;;;;;39.40;25.30;;;;;;;7.49;72.87;102644.19;5095785;28;20495;-41
2021/03/23 08:25:19;;;;;;;36.72;24.83;;;;;;;7.59;72.87;102654.78;5095493;28;20028;-41
2021/03/23 08:27:54;;;;;;;36.08;25.23;;;;;;;7.59;72.81;102652.09;5094745;28;20023;-41
2021/03/23 08:30:48;;;;;;;35.33;24.35;;;;;;;7.73;72.79;102651.44;5096255;28;20024;-41
2021/03/23 08:33:51;;;;;;;40.50;26.75;;;;;;;7.83;72.51;102641.34;5095868;28;20472;-41
2021/03/23 08:36:35;;;;;;;39.53;26.60;;;;;;;7.93;72.49;102644.69;5095066;28;20066;-41
2021/03/23 08:39:25;;;;;;;39.10;26.85;;;;;;;8.05;71.94;102639.78;5096023;28;20028;-41
2021/03/23 08:42:02;;;;;;;39.25;27.42;;;;;;;8.11;71.19;102640.97;5095479;28;20031;-41
2021/03/23 08:44:38;;;;;;;44.03;30.98;;;;;;;8.14;70.74;102638.75;5095362;28;20060;-41
2021/03/23 08:47:27;;;;;;;44.38;31.15;;;;;;;8.19;71.28;102636.38;5095276;28;20035;-41
2021/03/23 08:49:55;;;;;;;39.78;29.33;;;;;;;8.26;70.91;102637.41;5095599;28;20111;-41
2021/03/23 08:52:45;;;;;;;48.42;33.63;;;;;;;8.32;71.08;102629.63;5094940;28;20476;-41
2021/03/23 08:55:28;;;;;;;47.50;33.47;;;;;;;8.41;70.54;102616.00;5095185;28;20024;-41
2021/03/23 08:57:58;;;;;;;45.47;33.35;;;;;;;8.40;70.07;102635.88;5095330;28;20028;-41
2021/03/23 09:00:39;;;;;;;45.50;34.08;;;;;;;8.40;70.32;102630.50;5095372;28;20028;-41
2021/03/23 09:03:07;;;;;;;45.00;34.50;;;;;;;8.42;69.70;102641.94;5094878;28;20376;-41
2021/03/23 09:05:51;;;;;;;49.13;35.58;;;;;;;8.41;69.38;102632.16;5094925;28;20380;-41
2021/03/23 09:08:21;;;;;;;51.67;36.85;;;;;;;8.39;69.78;102639.56;5094828;28;20024;-41
2021/03/23 09:10:51;;;;;;;49.42;34.80;;;;;;;8.42;69.25;102652.72;5094900;28;20031;-41
2021/03/23 09:13:34;;;;;;;49.10;35.95;;;;;;;8.39;69.54;102653.06;5095030;28;20081;-41
2021/03/23 09:16:03;;;;;;;49.13;36.40;;;;;;;8.36;69.22;102660.63;5094457;28;20024;-41
2021/03/23 09:18:35;;;;;;;48.60;35.17;;;;;;;8.38;69.78;102661.31;5094654;28;20058;-41
2021/03/23 09:21:08;;;;;;;46.55;34.47;;;;;;;8.44;69.79;102658.78;5095211;28;20032;-41
2021/03/23 09:23:39;;;;;;;44.75;34.30;;;;;;;8.55;69.44;102657.59;5094807;28;20051;-41
2021/03/23 09:26:31;;;;;;;50.97;36.20;;;;;;;8.59;69.43;102648.13;5094787;28;20051;-41
2021/03/23 09:29:17;;;;;;;48.42;34.83;;;;;;;8.52;69.63;102652.53;5094467;28;20028;-42
2021/03/23 09:31:57;;;;;;;48.97;36.72;;;;;;;8.66;69.30;102659.91;5094337;28;20085;-41
2021/03/23 09:35:09;;;;;;;51.13;38.25;;;;;;;8.88;69.10;102658.31;5094409;28;20051;-41
2021/03/23 09:37:51;;;;;;;49.67;37.00;;;;;;;8.82;68.95;102666.25;5092569;28;20040;-41
2021/03/23 09:40:16;;;;;;;50.40;35.25;;;;;;;8.79;68.98;102664.75;5093127;28;20020;-41
2021/03/23 09:43:04;;;;;;;47.03;34.43;;;;;;;8.74;68.60;102673.38;5093768;28;20038;-41
2021/03/23 09:45:34;;;;;;;48.42;37.38;;;;;;;8.81;69.94;102668.09;5093817;28;20495;-41
2021/03/23 09:48:12;;;;;;;44.78;32.53;;;;;;;8.92;68.58;102666.88;5095033;28;20075;-41
2021/03/23 09:50:51;;;;;;;41.35;30.00;;;;;;;8.98;68.21;102669.72;5094170;28;20036;-41
2021/03/23 09:53:28;;;;;;;40.92;30.33;;;;;;;9.16;68.43;102672.13;5094108;28;20120;-41
2021/03/23 09:56:01;;;;;;;40.90;30.27;;;;;;;9.29;67.42;102672.41;5093978;28;20040;-41
2021/03/23 09:58:27;;;;;;;39.80;29.80;;;;;;;9.37;66.92;102676.94;5094540;28;20119;-41
2021/03/23 10:01:07;;;;;;;44.42;30.92;;;;;;;9.40;67.39;102673.84;5094774;28;20035;-41
2021/03/23 10:03:36;;;;;;;41.95;30.58;;;;;;;9.47;66.85;102676.69;5094112;28;20074;-41
2021/03/23 10:06:09;;;;;;;42.92;28.73;;;;;;;9.51;67.94;102673.44;5093542;28;20024;-41
2021/03/23 10:08:35;;;;;;;43.15;29.23;;;;;;;9.47;66.94;102668.59;5094431;28;20456;-41
2021/03/23 10:11:12;;;;;;;;;;;;;;;9.64;67.21;102677.41;5095147;28;20061;-41
2021/03/23 10:13:43;;;;;;;40.40;27.75;;;;;;;9.66;67.92;102661.84;5094365;28;19908;-42
2021/03/23 10:16:20;;;;;;;44.58;29.30;;;;;;;9.64;66.34;102655.81;5093718;28;20456;-41
2021/03/23 10:18:46;;;;;;;41.50;28.05;;;;;;;9.56;66.61;102659.41;5094074;28;20066;-41
2021/03/23 10:21:14;;;;;;;40.27;28.07;;;;;;;9.60;67.19;102654.47;5093969;28;20056;-41
2021/03/23 10:23:56;;;;;;;41.45;27.73;;;;;;;9.53;67.09;102657.91;5093989;28;20054;-41
2021/03/23 10:26:28;;;;;;;47.30;29.20;;;;;;;9.59;67.49;102663.59;5093636;28;20055;-42
2021/03/23 10:28:55;;;;;;;47.63;29.23;;;;;;;9.58;67.67;102660.06;5094085;28;20095;-41
2021/03/23 10:31:36;;;;;;;43.88;30.40;;;;;;;9.61;66.63;102666.97;5093877;28;20024;-41
2021/03/23 10:34:10;;;;;;;43.80;29.00;;;;;;;9.67;67.21;102660.84;5093837;28;20063;-41
2021/03/23 10:36:48;;;;;;;44.88;29.55;;;;;;;9.71;67.05;102660.31;5094382;28;20027;-41
2021/03/23 10:39:43;;;;;;;46.05;29.27;;;;;;;9.80;66.87;102658.38;5093451;28;20060;-41
2021/03/23 10:42:31;;;;;;;44.47;29.02;;;;;;;9.91;66.60;102668.75;5093561;28;20024;-41
2021/03/23 10:45:18;;;;;;;44.53;27.92;;;;;;;9.75;66.47;102661.59;5092747;28;20111;-41
2021/03/23 10:47:47;;;;;;;43.70;28.52;;;;;;;9.67;66.14;102668.97;5091701;28;20420;-41
2021/03/23 10:50:13;;;;;;;41.83;27.13;;;;;;;9.76;66.48;102662.44;5093963;28;20062;-41
2021/03/23 10:52:38;;;;;;;43.25;28.83;;;;;;;9.82;65.95;102664.44;5093394;28;20027;-41
2021/03/23 10:55:22;;;;;;;45.60;27.77;;;;;;;9.97;65.89;102665.31;5093408;28;20067;-41
2021/03/23 10:57:47;;;;;;;45.30;29.27;;;;;;;9.96;65.72;102662.81;5093853;28;20024;-41
2021/03/23 11:00:26;;;;;;;40.57;27.50;;;;;;;10.04;65.40;102658.16;5097997;28;20028;-41
2021/03/23 11:02:51;;;;;;;38.13;25.88;;;;;;;10.07;65.49;102648.84;5097606;28;20089;-41
2021/03/23 11:05:21;;;;;;;38.85;25.02;;;;;;;9.98;66.07;102655.34;5097873;28;20032;-42
2021/03/23 11:07:56;;;;;;;43.25;26.60;;;;;;;10.03;65.41;102661.88;5097224;28;20111;-41
2021/03/23 11:10:24;;;;;;;39.78;25.40;;;;;;;10.06;65.58;102648.00;5097761;28;20035;-41
2021/03/23 11:12:49;;;;;;;40.70;25.38;;;;;;;10.30;65.25;102646.13;5096769;28;20484;-41
2021/03/23 11:15:15;;;;;;;37.10;23.97;;;;;;;10.35;64.58;102651.81;5097211;28;20024;-41
2021/03/23 11:17:49;;;;;;;35.53;23.27;;;;;;;10.25;64.14;102651.25;5096767;28;20020;-41
2021/03/23 11:20:20;;;;;;;34.88;21.98;;;;;;;10.47;64.58;102644.91;5096941;28;20464;-41
2021/03/23 11:22:45;;;;;;;33.70;22.38;;;;;;;10.48;64.07;102643.88;5096557;28;20052;-41
2021/03/23 11:25:18;;;;;;;34.53;22.47;;;;;;;10.73;64.38;102638.16;5095993;28;20074;-41
2021/03/23 11:27:43;;;;;;;36.30;24.02;;;;;;;10.74;62.54;102634.47;5095288;28;20032;-41
2021/03/23 11:30:09;;;;;;;37.67;24.03;;;;;;;10.78;62.42;102642.00;5095309;28;20035;-41
2021/03/23 11:32:35;;;;;;;36.00;22.55;;;;;;;10.84;62.55;102629.59;5095465;28;20137;-41
2021/03/23 11:35:00;;;;;;;37.77;22.70;;;;;;;11.03;63.44;102623.56;5095329;28;20396;-41
2021/03/23 11:37:25;;;;;;;33.30;21.17;;;;;;;11.10;63.02;102620.94;5094136;28;20472;-41
2021/03/23 11:39:51;;;;;;;31.37;21.80;;;;;;;11.09;62.47;102622.81;5096260;28;20031;-41